createdAt,value
2017-08-07T00:00:38.192Z,84.6
2017-08-07T00:01:46.018Z,85.5
2017-08-07T00:02:53.167Z,85.1
2017-08-07T00:04:00.644Z,84.6
2017-08-07T00:05:08.118Z,85.2
2017-08-07T00:06:15.677Z,85.5
2017-08-07T00:07:23.454Z,84.1
2017-08-07T00:08:30.604Z,84.9
2017-08-07T00:09:38.095Z,85.2
2017-08-07T00:10:45.571Z,85.1
2017-08-07T00:11:53.052Z,85.7
2017-08-07T00:13:00.827Z,82.9
2017-08-07T00:14:08.311Z,84.4
2017-08-07T00:15:15.455Z,84.8
2017-08-07T00:16:22.928Z,84.9
2017-08-07T00:17:30.405Z,85.9
2017-08-07T00:18:38.243Z,84.8
2017-08-07T00:19:45.724Z,86
2017-08-07T00:20:53.463Z,85.9
2017-08-07T00:22:00.939Z,85.3
2017-08-07T00:23:08.432Z,86
2017-08-07T00:24:15.871Z,86.1
2017-08-07T00:25:23.347Z,85
2017-08-07T00:26:30.837Z,84.4
2017-08-07T00:27:38.317Z,86.5
2017-08-07T00:28:45.792Z,84.9
2017-08-07T00:29:53.632Z,86.4
2017-08-07T00:31:01.113Z,86.8
2017-08-07T00:32:08.268Z,86.5
2017-08-07T00:33:15.746Z,85.9
2017-08-07T00:34:23.218Z,87.4
2017-08-07T00:35:31.006Z,87.2
2017-08-07T00:36:38.485Z,87
2017-08-07T00:37:45.966Z,87.5
2017-08-07T00:38:53.447Z,87.8
2017-08-07T00:40:00.944Z,87.9
2017-08-07T00:41:08.725Z,86.8
2017-08-07T00:42:16.205Z,87.1
2017-08-07T00:43:23.686Z,86.9
2017-08-07T00:44:31.162Z,87.4
2017-08-07T00:45:38.421Z,86.2
2017-08-07T00:46:46.255Z,87.6
2017-08-07T00:47:53.729Z,86.6
2017-08-07T00:49:01.216Z,84.1
2017-08-07T00:50:08.697Z,86.2
2017-08-07T00:51:15.846Z,85.9
2017-08-07T00:52:23.670Z,85.2
2017-08-07T00:53:31.152Z,87
2017-08-07T00:54:38.632Z,88.3
2017-08-07T00:55:46.106Z,86.7
2017-08-07T00:56:53.588Z,86.9
2017-08-07T00:58:01.086Z,85.7
2017-08-07T00:59:08.559Z,87.3
2017-08-07T01:00:16.037Z,84.7
2017-08-07T01:01:23.185Z,86.3
2017-08-07T01:02:30.661Z,86.3
2017-08-07T01:03:38.495Z,85.3
2017-08-07T01:04:45.972Z,87.2
2017-08-07T01:05:53.446Z,87.2
2017-08-07T01:07:00.590Z,85.7
2017-08-07T01:08:08.074Z,85.5
2017-08-07T01:09:15.922Z,86
2017-08-07T01:10:23.070Z,87.5
2017-08-07T01:11:30.546Z,86.8
2017-08-07T01:12:38.033Z,87.7
2017-08-07T01:13:45.511Z,87
2017-08-07T01:14:53.289Z,87.4
2017-08-07T01:16:00.766Z,88.5
2017-08-07T01:17:08.246Z,87.1
2017-08-07T01:18:15.741Z,86.4
2017-08-07T01:19:23.227Z,88.2
2017-08-07T01:20:31.002Z,88.7
2017-08-07T01:21:38.487Z,88.5
2017-08-07T01:22:45.635Z,86.8
2017-08-07T01:23:53.119Z,87.2
2017-08-07T01:25:00.597Z,88.6
2017-08-07T01:26:08.108Z,87.5
2017-08-07T01:27:15.591Z,88.8
2017-08-07T01:28:23.071Z,87.8
2017-08-07T01:29:30.553Z,87.8
2017-08-07T01:30:38.026Z,87.7
2017-08-07T01:31:45.540Z,88.5
2017-08-07T01:32:53.024Z,89.1
2017-08-07T01:34:00.173Z,87.6
2017-08-07T01:35:07.651Z,86.9
2017-08-07T01:36:14.809Z,88.4
2017-08-07T01:37:22.643Z,87.5
2017-08-07T01:38:30.118Z,89.8
2017-08-07T01:39:37.611Z,89.4
2017-08-07T01:40:45.001Z,89.1
2017-08-07T01:41:52.482Z,90.1
2017-08-07T01:43:00.314Z,89.8
2017-08-07T01:44:07.802Z,88.7
2017-08-07T01:45:15.285Z,88.5
2017-08-07T01:46:22.765Z,89.8
2017-08-07T01:47:30.245Z,89.6
2017-08-07T01:48:38.080Z,89.8
2017-08-07T01:49:45.554Z,90
2017-08-07T01:50:53.036Z,89.1
2017-08-07T01:52:00.512Z,89.7
2017-08-07T01:53:07.987Z,90.1
2017-08-07T01:54:19.346Z,90.1
2017-08-07T01:55:26.816Z,85
2017-08-07T01:56:34.284Z,89.9
2017-08-07T01:57:41.763Z,89.8
2017-08-07T01:58:49.238Z,89.9
2017-08-07T01:59:56.695Z,88.6
2017-08-07T02:01:04.186Z,90.1
2017-08-07T02:02:11.337Z,89.2
2017-08-07T02:03:18.816Z,89.9
2017-08-07T02:04:26.293Z,88.2
2017-08-07T02:05:34.126Z,89.3
2017-08-07T02:06:41.611Z,90
2017-08-07T02:07:49.108Z,90
2017-08-07T02:08:56.577Z,90
2017-08-07T02:10:03.723Z,87
2017-08-07T02:11:11.513Z,88.4
2017-08-07T02:12:19.007Z,88.6
2017-08-07T02:13:26.500Z,86.2
2017-08-07T02:14:33.978Z,87.4
2017-08-07T02:15:41.452Z,88
2017-08-07T02:16:49.288Z,87.7
2017-08-07T02:17:56.764Z,88.8
2017-08-07T02:19:04.257Z,87.3
2017-08-07T02:20:11.719Z,89.7
2017-08-07T02:21:19.203Z,88.8
2017-08-07T02:22:26.979Z,89.6
2017-08-07T02:23:34.454Z,89.4
2017-08-07T02:24:41.593Z,89.9
2017-08-07T02:25:49.093Z,89.6
2017-08-07T02:26:56.562Z,89.6
2017-08-07T02:28:04.388Z,89.9
2017-08-07T02:29:11.872Z,88.4
2017-08-07T02:30:19.346Z,89.8
2017-08-07T02:31:26.845Z,89.3
2017-08-07T02:32:34.319Z,89.6
2017-08-07T02:33:41.833Z,88.7
2017-08-07T02:34:49.314Z,89.7
2017-08-07T02:35:56.815Z,88.3
2017-08-07T02:37:04.288Z,89.7
2017-08-07T02:38:11.773Z,89.8
2017-08-07T02:39:19.602Z,89.5
2017-08-07T02:40:27.079Z,90
2017-08-07T02:41:34.556Z,89.8
2017-08-07T02:42:41.702Z,90.4
2017-08-07T02:43:49.210Z,90.4
2017-08-07T02:44:57.041Z,90.4
2017-08-07T02:46:04.184Z,90.6
2017-08-07T02:47:11.664Z,90.4
2017-08-07T02:48:19.143Z,89.8
2017-08-07T02:49:26.620Z,90.8
2017-08-07T02:50:34.451Z,89.7
2017-08-07T02:51:41.596Z,90.3
2017-08-07T02:52:49.072Z,90.8
2017-08-07T02:53:56.562Z,90
2017-08-07T02:55:04.044Z,90.5
2017-08-07T02:56:11.823Z,90.6
2017-08-07T02:57:19.324Z,90.6
2017-08-07T02:58:26.803Z,90.9
2017-08-07T02:59:34.276Z,90.8
2017-08-07T03:00:41.753Z,90.5
2017-08-07T03:01:49.581Z,90.6
2017-08-07T03:02:57.061Z,90.6
2017-08-07T03:04:04.539Z,88.1
2017-08-07T03:05:12.014Z,89.5
2017-08-07T03:06:19.495Z,89.5
2017-08-07T03:07:27.276Z,90
2017-08-07T03:08:34.753Z,90.1
2017-08-07T03:09:42.225Z,90.1
2017-08-07T03:10:49.698Z,90.7
2017-08-07T03:11:57.176Z,90.2
2017-08-07T03:13:05.004Z,90.7
2017-08-07T03:14:12.660Z,90.3
2017-08-07T03:15:20.141Z,89.4
2017-08-07T03:16:27.284Z,90.3
2017-08-07T03:17:34.770Z,90.5
2017-08-07T03:18:42.598Z,91
2017-08-07T03:19:50.081Z,91
2017-08-07T03:20:57.227Z,90.6
2017-08-07T03:22:04.702Z,90.5
2017-08-07T03:23:12.180Z,90.6
2017-08-07T03:24:20.010Z,91
2017-08-07T03:25:27.490Z,90
2017-08-07T03:26:34.964Z,91
2017-08-07T03:27:42.447Z,90.3
2017-08-07T03:28:49.927Z,89
2017-08-07T03:29:57.754Z,89.8
2017-08-07T03:31:04.916Z,90.8
2017-08-07T03:32:12.390Z,89
2017-08-07T03:33:19.879Z,90.7
2017-08-07T03:34:27.354Z,91.1
2017-08-07T03:35:35.187Z,90.7
2017-08-07T03:36:42.659Z,90.8
2017-08-07T03:37:50.135Z,91.5
2017-08-07T03:38:57.611Z,91.6
2017-08-07T03:40:05.104Z,91.6
2017-08-07T03:41:12.551Z,91.1
2017-08-07T03:42:20.035Z,90.9
2017-08-07T03:43:27.516Z,91.4
2017-08-07T03:44:34.996Z,91.3
2017-08-07T03:45:42.480Z,91.3
2017-08-07T03:46:50.257Z,90.7
2017-08-07T03:47:57.406Z,91.1
2017-08-07T03:49:04.882Z,91.4
2017-08-07T03:50:12.365Z,91.2
2017-08-07T03:51:19.855Z,90.9
2017-08-07T03:52:27.651Z,90.8
2017-08-07T03:53:35.131Z,91.2
2017-08-07T03:54:42.630Z,90.7
2017-08-07T03:55:50.109Z,90.6
2017-08-07T03:56:57.587Z,91
2017-08-07T03:58:05.068Z,91.3
2017-08-07T03:59:12.543Z,90.3
2017-08-07T04:00:19.695Z,90.7
2017-08-07T04:01:27.170Z,91.2
2017-08-07T04:02:34.645Z,91.3
2017-08-07T04:03:41.802Z,91.2
2017-08-07T04:04:49.281Z,91
2017-08-07T04:05:56.102Z,90.6
2017-08-07T04:07:03.578Z,91.2
2017-08-07T04:08:11.055Z,91.1
2017-08-07T04:09:18.534Z,91.5
2017-08-07T04:10:26.012Z,91.8
2017-08-07T04:11:33.507Z,91.3
2017-08-07T04:12:40.664Z,91.4
2017-08-07T04:13:48.143Z,91.6
2017-08-07T04:14:55.917Z,91.5
2017-08-07T04:16:03.398Z,91.3
2017-08-07T04:17:10.873Z,91.4
2017-08-07T04:18:18.343Z,91
2017-08-07T04:19:25.820Z,91
2017-08-07T04:20:33.257Z,91.4
2017-08-07T04:21:40.733Z,91.8
2017-08-07T04:22:48.217Z,92
2017-08-07T04:23:55.363Z,91.3
2017-08-07T04:25:02.839Z,91.6
2017-08-07T04:26:10.617Z,91.5
2017-08-07T04:27:18.091Z,91.5
2017-08-07T04:28:25.243Z,91.9
2017-08-07T04:29:32.723Z,91.4
2017-08-07T04:30:39.833Z,91.7
2017-08-07T04:31:47.287Z,91.3
2017-08-07T04:32:54.759Z,91.7
2017-08-07T04:34:02.244Z,90.9
2017-08-07T04:35:09.733Z,91.6
2017-08-07T04:36:17.219Z,91.6
2017-08-07T04:37:24.991Z,91.9
2017-08-07T04:38:32.468Z,90
2017-08-07T04:39:39.948Z,91.7
2017-08-07T04:40:47.094Z,91.5
2017-08-07T04:41:54.577Z,91.4
2017-08-07T04:43:02.362Z,90.8
2017-08-07T04:44:09.832Z,91.8
2017-08-07T04:45:17.308Z,91.1
2017-08-07T04:46:24.469Z,91.6
2017-08-07T04:47:31.948Z,91.1
2017-08-07T04:48:39.726Z,90.8
2017-08-07T04:49:47.222Z,91.7
2017-08-07T04:50:54.376Z,91.5
2017-08-07T04:52:01.865Z,91.2
2017-08-07T04:53:09.015Z,91.3
2017-08-07T04:54:16.791Z,91.7
2017-08-07T04:55:24.276Z,92
2017-08-07T04:56:31.756Z,92.2
2017-08-07T04:57:39.239Z,92
2017-08-07T04:58:46.716Z,92
2017-08-07T04:59:54.486Z,91.3
2017-08-07T05:01:01.958Z,91.7
2017-08-07T05:03:31.492Z,91.2
2017-08-07T05:04:38.972Z,91.9
2017-08-07T05:05:46.426Z,91.5
2017-08-07T05:06:53.897Z,91.8
2017-08-07T05:08:01.371Z,92
2017-08-07T05:09:08.852Z,92
2017-08-07T05:10:16.328Z,91.6
2017-08-07T05:11:24.105Z,91.4
2017-08-07T05:12:31.582Z,91.5
2017-08-07T05:13:38.395Z,91.5
2017-08-07T05:14:45.539Z,91.6
2017-08-07T05:15:52.692Z,91.5
2017-08-07T05:17:00.465Z,91.8
2017-08-07T05:18:07.946Z,92
2017-08-07T05:19:15.424Z,92
2017-08-07T05:20:22.892Z,91.7
2017-08-07T05:21:30.390Z,91.7
2017-08-07T05:22:38.166Z,91.5
2017-08-07T05:23:45.641Z,91.2
2017-08-07T05:24:53.118Z,91.7
2017-08-07T05:26:00.593Z,91.9
2017-08-07T05:27:08.070Z,91.8
2017-08-07T05:28:15.528Z,91.8
2017-08-07T05:29:23.006Z,91.1
2017-08-07T05:30:30.486Z,91.7
2017-08-07T05:31:37.656Z,90.8
2017-08-07T05:32:45.149Z,91.7
2017-08-07T05:33:52.933Z,91.5
2017-08-07T05:35:00.420Z,91.9
2017-08-07T05:36:07.939Z,91.7
2017-08-07T05:37:15.088Z,91.7
2017-08-07T05:38:22.567Z,91.7
2017-08-07T05:39:30.348Z,91.3
2017-08-07T05:40:37.489Z,91.5
2017-08-07T05:41:44.967Z,91.5
2017-08-07T05:42:52.123Z,91.6
2017-08-07T05:43:59.609Z,91.5
2017-08-07T05:45:07.396Z,91.5
2017-08-07T05:46:14.876Z,91.3
2017-08-07T05:47:22.352Z,91.4
2017-08-07T05:48:29.828Z,91.4
2017-08-07T05:49:37.304Z,91.3
2017-08-07T05:50:45.083Z,91.4
2017-08-07T05:51:52.556Z,91
2017-08-07T05:53:00.034Z,91
2017-08-07T05:54:07.183Z,91.2
2017-08-07T05:55:14.657Z,91.2
2017-08-07T05:56:22.468Z,91.1
2017-08-07T05:57:29.953Z,90.8
2017-08-07T05:58:37.101Z,90.8
2017-08-07T05:59:44.576Z,90.8
2017-08-07T06:00:51.720Z,90.6
2017-08-07T06:01:59.502Z,90.5
2017-08-07T06:03:06.978Z,90.5
2017-08-07T06:04:14.452Z,90.4
2017-08-07T06:05:21.932Z,90.2
2017-08-07T06:06:29.417Z,90.2
2017-08-07T06:07:37.199Z,90.2
2017-08-07T06:08:44.670Z,89.6
2017-08-07T06:09:52.147Z,89.1
2017-08-07T06:10:59.627Z,88.9
2017-08-07T06:12:07.105Z,87.7
2017-08-07T06:13:14.885Z,88
2017-08-07T06:14:22.358Z,88.4
2017-08-07T06:15:29.843Z,88.8
2017-08-07T06:16:37.324Z,86.1
2017-08-07T06:17:44.806Z,86.7
2017-08-07T06:18:52.583Z,86.6
2017-08-07T06:20:00.056Z,86.7
2017-08-07T06:21:07.202Z,86
2017-08-07T06:22:14.685Z,84.2
2017-08-07T06:23:22.156Z,85.1
2017-08-07T06:24:29.942Z,83.2
2017-08-07T06:25:37.095Z,85.3
2017-08-07T06:26:44.574Z,80.7
2017-08-07T06:27:52.049Z,82
2017-08-07T06:28:59.529Z,81.8
2017-08-07T06:30:07.312Z,83.1
2017-08-07T06:31:14.796Z,81.7
2017-08-07T06:32:22.271Z,80.5
2017-08-07T06:33:29.773Z,80.8
2017-08-07T06:34:37.255Z,78.2
2017-08-07T06:35:45.105Z,78.4
2017-08-07T06:36:52.585Z,79.3
2017-08-07T06:38:00.073Z,79.4
2017-08-07T06:39:07.553Z,76.4
2017-08-07T06:40:15.034Z,76.5
2017-08-07T06:41:22.819Z,80.4
2017-08-07T06:42:30.304Z,76
2017-08-07T06:43:37.781Z,76.7
2017-08-07T06:44:44.926Z,74.7
2017-08-07T06:45:52.409Z,76.2
2017-08-07T06:47:00.194Z,75.5
2017-08-07T06:48:07.676Z,74
2017-08-07T06:49:15.161Z,74.9
2017-08-07T06:50:22.643Z,75
2017-08-07T06:51:30.118Z,75
2017-08-07T06:52:37.901Z,78.5
2017-08-07T06:53:45.385Z,76.7
2017-08-07T06:54:52.879Z,76.2
2017-08-07T06:56:00.025Z,74
2017-08-07T06:57:07.521Z,73.8
2017-08-07T06:58:15.310Z,74.5
2017-08-07T06:59:22.790Z,73.2
2017-08-07T07:00:29.951Z,74.4
2017-08-07T07:01:37.432Z,74.4
2017-08-07T07:02:44.916Z,75.5
2017-08-07T07:03:52.703Z,73.9
2017-08-07T07:05:00.192Z,71.2
2017-08-07T07:06:07.675Z,72.1
2017-08-07T07:07:15.151Z,68.8
2017-08-07T07:08:22.636Z,72.3
2017-08-07T07:09:30.092Z,72.2
2017-08-07T07:10:37.573Z,69.5
2017-08-07T07:11:45.052Z,66.9
2017-08-07T07:12:52.540Z,68
2017-08-07T07:13:59.693Z,70.6
2017-08-07T07:15:07.470Z,67.8
2017-08-07T07:16:14.954Z,68.7
2017-08-07T07:17:23.543Z,72.7
2017-08-07T07:18:31.039Z,68.2
2017-08-07T07:19:38.185Z,68.1
2017-08-07T07:20:45.967Z,68.6
2017-08-07T07:21:53.452Z,68.9
2017-08-07T07:23:00.931Z,68.6
2017-08-07T07:24:08.412Z,67.9
2017-08-07T07:25:15.897Z,71
2017-08-07T07:26:23.378Z,68.6
2017-08-07T07:27:30.536Z,65.2
2017-08-07T07:28:38.377Z,65.9
2017-08-07T07:29:45.862Z,68.4
2017-08-07T07:30:53.350Z,70.6
2017-08-07T07:32:00.829Z,69.9
2017-08-07T07:33:08.324Z,67.2
2017-08-07T07:34:16.163Z,68.3
2017-08-07T07:35:23.651Z,70.3
2017-08-07T07:36:31.126Z,66.3
2017-08-07T07:37:38.635Z,64.9
2017-08-07T07:38:45.802Z,66
2017-08-07T07:39:53.336Z,64.4
2017-08-07T07:41:00.821Z,64.7
2017-08-07T07:42:08.053Z,63
2017-08-07T07:43:15.204Z,65.8
2017-08-07T07:44:22.684Z,67.4
2017-08-07T07:45:30.464Z,65
2017-08-07T07:46:37.955Z,66.1
2017-08-07T07:47:45.438Z,63.9
2017-08-07T07:48:52.256Z,65.6
2017-08-07T07:50:00.380Z,67.7
2017-08-07T07:51:08.220Z,64.6
2017-08-07T07:52:15.708Z,61.4
2017-08-07T07:53:23.192Z,61.5
2017-08-07T07:54:30.680Z,61.8
2017-08-07T07:55:37.830Z,61.1
2017-08-07T07:56:45.658Z,61.6
2017-08-07T07:57:53.147Z,62.5
2017-08-07T07:59:00.633Z,61
2017-08-07T08:00:08.113Z,63.2
2017-08-07T08:01:15.599Z,60.3
2017-08-07T08:02:23.381Z,59.7
2017-08-07T08:03:31.341Z,59.4
2017-08-07T08:04:38.828Z,60.6
2017-08-07T08:05:46.321Z,59.2
2017-08-07T08:06:53.810Z,59.2
2017-08-07T08:08:01.266Z,59.8
2017-08-07T08:09:08.757Z,59.1
2017-08-07T08:10:16.235Z,61.4
2017-08-07T08:11:23.721Z,62.2
2017-08-07T08:12:31.220Z,59.5
2017-08-07T08:13:39.008Z,57.4
2017-08-07T08:14:46.508Z,61.4
2017-08-07T08:15:54.271Z,58.7
2017-08-07T08:17:01.434Z,57.5
2017-08-07T08:18:08.285Z,59.9
2017-08-07T08:19:16.087Z,56.5
2017-08-07T08:20:23.236Z,62
2017-08-07T08:21:30.722Z,59.2
2017-08-07T08:22:38.216Z,58.6
2017-08-07T08:23:45.704Z,55.5
2017-08-07T08:24:53.156Z,58.6
2017-08-07T08:26:00.644Z,56.9
2017-08-07T08:27:08.129Z,55.1
2017-08-07T08:28:15.619Z,57.5
2017-08-07T08:29:23.102Z,53.5
2017-08-07T08:30:30.889Z,54.7
2017-08-07T08:31:38.374Z,60.8
2017-08-07T08:32:45.861Z,56.9
2017-08-07T08:33:53.340Z,56.8
2017-08-07T08:35:00.835Z,55
2017-08-07T08:36:08.615Z,55.1
2017-08-07T08:37:16.100Z,55.2
2017-08-07T08:38:23.608Z,55.1
2017-08-07T08:39:31.095Z,60.6
2017-08-07T08:40:38.586Z,60.1
2017-08-07T08:41:46.371Z,56.6
2017-08-07T08:42:53.851Z,56.2
2017-08-07T08:44:01.333Z,53
2017-08-07T08:45:08.491Z,54.5
2017-08-07T08:46:15.649Z,59.1
2017-08-07T08:47:22.778Z,56.5
2017-08-07T08:48:29.932Z,51.7
2017-08-07T08:49:37.420Z,49.6
2017-08-07T08:50:44.582Z,54.1
2017-08-07T08:51:52.088Z,51.6
2017-08-07T08:52:59.875Z,56.9
2017-08-07T08:54:07.368Z,54.3
2017-08-07T08:55:14.886Z,54.7
2017-08-07T08:56:22.372Z,55.1
2017-08-07T08:57:29.858Z,53.5
2017-08-07T08:58:37.643Z,51.6
2017-08-07T08:59:45.134Z,49.1
2017-08-07T09:00:52.621Z,48.5
2017-08-07T09:02:00.114Z,52.8
2017-08-07T09:03:07.602Z,53.1
2017-08-07T09:04:15.072Z,50.2
2017-08-07T09:05:22.574Z,54.1
2017-08-07T09:06:30.068Z,48.9
2017-08-07T09:07:37.559Z,49.3
2017-08-07T09:08:45.049Z,50.9
2017-08-07T09:09:52.830Z,56.9
2017-08-07T09:11:00.324Z,55.1
2017-08-07T09:12:08.042Z,50.6
2017-08-07T09:13:15.527Z,50.5
2017-08-07T09:14:23.010Z,50.3
2017-08-07T09:15:30.798Z,50.9
2017-08-07T09:16:38.288Z,50.3
2017-08-07T09:17:45.443Z,49.2
2017-08-07T09:18:52.979Z,48.3
2017-08-07T09:20:00.142Z,49.8
2017-08-07T09:21:07.932Z,51.9
2017-08-07T09:22:15.423Z,48.7
2017-08-07T09:23:22.908Z,49.2
2017-08-07T09:24:30.396Z,49.4
2017-08-07T09:25:37.881Z,46.3
2017-08-07T09:26:45.689Z,47.2
2017-08-07T09:27:52.853Z,46.8
2017-08-07T09:29:00.345Z,49.6
2017-08-07T09:30:07.840Z,47.8
2017-08-07T09:31:15.320Z,50.4
2017-08-07T09:32:22.780Z,48.9
2017-08-07T09:33:29.948Z,51.3
2017-08-07T09:34:37.436Z,48.5
2017-08-07T09:35:44.939Z,45.3
2017-08-07T09:36:52.108Z,46.2
2017-08-07T09:37:59.563Z,50.6
2017-08-07T09:39:07.061Z,53.9
2017-08-07T09:40:14.542Z,44.5
2017-08-07T09:41:22.027Z,44.7
2017-08-07T09:42:29.188Z,44.7
2017-08-07T09:43:36.987Z,48.6
2017-08-07T09:44:44.481Z,47.4
2017-08-07T09:45:51.965Z,40.4
2017-08-07T09:46:59.477Z,45
2017-08-07T09:48:06.636Z,46.5
2017-08-07T09:49:14.098Z,41.6
2017-08-07T09:50:21.603Z,47.9
2017-08-07T09:51:28.762Z,40.5
2017-08-07T09:52:36.257Z,41.9
2017-08-07T09:53:43.739Z,38.9
2017-08-07T09:54:51.534Z,40
2017-08-07T09:55:59.013Z,40.3
2017-08-07T09:57:06.499Z,38.1
2017-08-07T09:58:13.987Z,38.5
2017-08-07T09:59:21.146Z,40.1
2017-08-07T10:00:28.942Z,40.3
2017-08-07T10:01:36.103Z,45.7
2017-08-07T10:02:43.260Z,40.6
2017-08-07T10:03:50.757Z,37.4
2017-08-07T10:04:58.241Z,40.9
2017-08-07T10:06:05.703Z,40
2017-08-07T10:07:13.194Z,38.4
2017-08-07T10:08:20.685Z,40.2
2017-08-07T10:09:28.174Z,41.6
2017-08-07T10:10:35.666Z,41.3
2017-08-07T10:11:43.461Z,42.2
2017-08-07T10:12:50.960Z,38.5
2017-08-07T10:13:58.449Z,40.1
2017-08-07T10:15:05.939Z,42.2
2017-08-07T10:16:13.433Z,37.1
2017-08-07T10:17:21.231Z,39.3
2017-08-07T10:18:28.717Z,40.3
2017-08-07T10:19:36.210Z,43.6
2017-08-07T10:20:43.700Z,39.3
2017-08-07T10:21:51.188Z,36.9
2017-08-07T10:22:58.979Z,38.9
2017-08-07T10:24:06.469Z,40.1
2017-08-07T10:25:13.856Z,41.6
2017-08-07T10:26:21.349Z,41.8
2017-08-07T10:27:28.525Z,44.3
2017-08-07T10:28:35.997Z,41.8
2017-08-07T10:29:43.493Z,39.5
2017-08-07T10:30:50.988Z,40.6
2017-08-07T10:31:58.146Z,39.2
2017-08-07T10:34:12.775Z,41.7
2017-08-07T10:35:20.270Z,41
2017-08-07T10:36:27.754Z,39
2017-08-07T10:37:34.911Z,38.8
2017-08-07T10:38:42.406Z,40.5
2017-08-07T10:39:50.239Z,38.1
2017-08-07T10:40:57.730Z,40.8
2017-08-07T10:42:05.219Z,37.2
2017-08-07T10:43:12.742Z,36.7
2017-08-07T10:44:20.233Z,41.9
2017-08-07T10:45:28.083Z,36.1
2017-08-07T10:46:35.583Z,37.5
2017-08-07T10:47:43.064Z,35.4
2017-08-07T10:48:50.554Z,40.4
2017-08-07T10:49:58.038Z,40.7
2017-08-07T10:51:05.843Z,39.9
2017-08-07T10:52:13.008Z,41.5
2017-08-07T10:53:20.491Z,37
2017-08-07T10:54:27.984Z,37.8
2017-08-07T10:55:35.468Z,37.9
2017-08-07T10:56:43.307Z,39.1
2017-08-07T10:57:50.789Z,36.5
2017-08-07T10:58:58.283Z,36.5
2017-08-07T11:00:05.769Z,38.3
2017-08-07T11:01:13.313Z,38.1
2017-08-07T11:02:20.806Z,35.4
2017-08-07T11:03:28.291Z,37.6
2017-08-07T11:04:35.785Z,33
2017-08-07T11:05:43.279Z,34.3
2017-08-07T11:06:50.440Z,33.5
2017-08-07T11:07:58.276Z,39
2017-08-07T11:10:12.874Z,35.4
2017-08-07T11:11:20.362Z,35.5
2017-08-07T11:12:27.863Z,36.6
2017-08-07T11:13:35.645Z,40.9
2017-08-07T11:14:43.150Z,36.8
2017-08-07T11:15:50.642Z,37
2017-08-07T11:16:58.137Z,36.4
2017-08-07T11:18:05.646Z,33.8
2017-08-07T11:19:13.152Z,36
2017-08-07T11:20:20.946Z,37.4
2017-08-07T11:21:28.436Z,36.3
2017-08-07T11:22:35.926Z,36.7
2017-08-07T11:23:43.420Z,34.7
2017-08-07T11:24:50.911Z,36.7
2017-08-07T11:25:58.749Z,38.5
2017-08-07T11:27:05.915Z,37.4
2017-08-07T11:28:13.844Z,36
2017-08-07T11:29:21.335Z,35
2017-08-07T11:30:28.816Z,32.8
2017-08-07T11:31:36.313Z,35.2
2017-08-07T11:32:43.805Z,36.4
2017-08-07T11:33:50.958Z,35.3
2017-08-07T11:34:58.474Z,35.7
2017-08-07T11:36:05.976Z,35.7
2017-08-07T11:37:13.478Z,35.4
2017-08-07T11:38:20.968Z,35.8
2017-08-07T11:39:28.452Z,34
2017-08-07T11:40:35.948Z,34.3
2017-08-07T11:41:43.440Z,34.9
2017-08-07T11:42:50.921Z,32.5
2017-08-07T11:43:58.414Z,30.1
2017-08-07T11:45:05.582Z,35
2017-08-07T11:46:13.089Z,33.4
2017-08-07T11:47:20.581Z,33.9
2017-08-07T11:48:28.426Z,32.8
2017-08-07T11:49:35.592Z,35.3
2017-08-07T11:50:42.786Z,34.9
2017-08-07T11:51:50.298Z,35.1
2017-08-07T11:52:57.453Z,33.6
2017-08-07T11:54:04.960Z,38
2017-08-07T11:55:12.457Z,33.7
2017-08-07T11:56:19.949Z,34.1
2017-08-07T11:57:27.438Z,34.2
2017-08-07T11:58:34.602Z,36.5
2017-08-07T11:59:42.441Z,33
2017-08-07T12:00:49.598Z,32.5
2017-08-07T12:01:56.763Z,34.5
2017-08-07T12:03:04.246Z,34.2
2017-08-07T12:04:11.736Z,34
2017-08-07T12:05:18.873Z,33.8
2017-08-07T12:06:26.044Z,36.8
2017-08-07T12:07:33.548Z,34.8
2017-08-07T12:08:40.719Z,37.8
2017-08-07T12:09:48.207Z,36.7
2017-08-07T12:10:56.051Z,40.3
2017-08-07T12:12:03.531Z,38.4
2017-08-07T12:13:11.030Z,37
2017-08-07T12:14:18.538Z,35.9
2017-08-07T12:15:26.028Z,37.8
2017-08-07T12:16:33.824Z,38.6
2017-08-07T12:17:41.312Z,34.9
2017-08-07T12:18:48.812Z,36.8
2017-08-07T12:19:56.308Z,36.9
2017-08-07T12:21:03.795Z,37.9
2017-08-07T12:22:11.262Z,36.7
2017-08-07T12:23:18.767Z,35.6
2017-08-07T12:24:26.263Z,38.6
2017-08-07T12:25:33.746Z,38.8
2017-08-07T12:26:40.916Z,32.8
2017-08-07T12:27:48.717Z,34.1
2017-08-07T12:28:56.208Z,33.5
2017-08-07T12:30:03.697Z,34.6
2017-08-07T12:31:11.195Z,38.5
2017-08-07T12:32:18.716Z,37.9
2017-08-07T12:33:26.520Z,37.4
2017-08-07T12:34:34.016Z,38.1
2017-08-07T12:35:41.508Z,35.2
2017-08-07T12:36:48.608Z,36.4
2017-08-07T12:37:55.766Z,34.4
2017-08-07T12:39:03.552Z,33.8
2017-08-07T12:40:10.738Z,34.2
2017-08-07T12:41:18.220Z,34.5
2017-08-07T12:42:25.703Z,33.8
2017-08-07T12:43:33.201Z,34.6
2017-08-07T12:44:40.991Z,34.2
2017-08-07T12:45:48.153Z,37.2
2017-08-07T12:46:55.659Z,38.7
2017-08-07T12:48:03.151Z,35.5
2017-08-07T12:49:10.318Z,35.3
2017-08-07T12:50:18.124Z,35.6
2017-08-07T12:51:25.646Z,35.5
2017-08-07T12:52:32.806Z,38.2
2017-08-07T12:53:40.292Z,39.4
2017-08-07T12:54:47.797Z,36.3
2017-08-07T12:55:55.592Z,35.7
2017-08-07T12:57:03.089Z,36.3
2017-08-07T12:58:10.260Z,40
2017-08-07T12:59:17.759Z,40.5
2017-08-07T13:00:25.254Z,39
2017-08-07T13:01:33.057Z,36.2
2017-08-07T13:02:40.220Z,34.9
2017-08-07T13:03:47.951Z,37.7
2017-08-07T13:04:55.434Z,40.1
2017-08-07T13:06:02.939Z,36.4
2017-08-07T13:07:10.731Z,36.3
2017-08-07T13:08:18.215Z,37.5
2017-08-07T13:09:25.376Z,37.8
2017-08-07T13:10:32.533Z,36.3
2017-08-07T13:11:40.025Z,34.6
2017-08-07T13:12:47.494Z,35.2
2017-08-07T13:13:54.981Z,38.3
2017-08-07T13:15:02.480Z,35.2
2017-08-07T13:16:10.005Z,32.9
2017-08-07T13:17:17.514Z,37.8
2017-08-07T13:18:25.308Z,36.3
2017-08-07T13:19:32.797Z,40.9
2017-08-07T13:20:40.294Z,38.8
2017-08-07T13:21:47.456Z,38
2017-08-07T13:22:54.949Z,34.3
2017-08-07T13:24:02.738Z,33.1
2017-08-07T13:25:10.233Z,32.7
2017-08-07T13:26:17.395Z,34.5
2017-08-07T13:27:24.564Z,33.6
2017-08-07T13:28:31.725Z,34.6
2017-08-07T13:29:39.524Z,35.1
2017-08-07T13:30:47.023Z,38.3
2017-08-07T13:31:54.522Z,38.3
2017-08-07T13:33:02.022Z,33.6
2017-08-07T13:34:09.516Z,34.8
2017-08-07T13:35:17.315Z,34.8
2017-08-07T13:36:25.016Z,36
2017-08-07T13:37:32.522Z,35.6
2017-08-07T13:38:40.024Z,34.5
2017-08-07T13:39:47.521Z,36.5
2017-08-07T13:40:55.317Z,35.5
2017-08-07T13:42:02.480Z,38.6
2017-08-07T13:43:09.970Z,37.8
2017-08-07T13:44:17.462Z,35.1
2017-08-07T13:45:24.960Z,34.1
2017-08-07T13:46:32.746Z,38.1
2017-08-07T13:47:39.907Z,34.3
2017-08-07T13:48:47.397Z,38.7
2017-08-07T13:49:54.887Z,35.8
2017-08-07T13:51:02.044Z,36.7
2017-08-07T13:52:09.836Z,34.7
2017-08-07T13:53:16.996Z,39.7
2017-08-07T13:54:24.493Z,34.9
2017-08-07T13:55:31.667Z,36.7
2017-08-07T13:56:39.199Z,38.8
2017-08-07T13:57:46.989Z,34.3
2017-08-07T13:58:54.500Z,34.9
2017-08-07T14:00:01.667Z,36.3
2017-08-07T14:01:08.826Z,37.4
2017-08-07T14:02:15.679Z,39
2017-08-07T14:03:23.463Z,36.8
2017-08-07T14:04:30.955Z,36.7
2017-08-07T14:05:38.453Z,36.5
2017-08-07T14:06:45.940Z,37.6
2017-08-07T14:07:53.429Z,37.3
2017-08-07T14:09:01.219Z,34.1
2017-08-07T14:10:08.710Z,35.2
2017-08-07T14:11:16.215Z,39.4
2017-08-07T14:12:23.702Z,37.7
2017-08-07T14:13:31.192Z,34.9
2017-08-07T14:14:38.678Z,39.4
2017-08-07T14:15:46.175Z,38.9
2017-08-07T14:16:53.664Z,39.4
2017-08-07T14:18:00.832Z,35.2
2017-08-07T14:19:08.321Z,35.4
2017-08-07T14:20:16.116Z,33
2017-08-07T14:21:23.275Z,39.9
2017-08-07T14:22:30.468Z,37
2017-08-07T14:23:37.962Z,34.5
2017-08-07T14:24:45.458Z,37.4
2017-08-07T14:25:53.249Z,34.4
2017-08-07T14:27:00.754Z,35.3
2017-08-07T14:28:08.244Z,36.7
2017-08-07T14:29:15.758Z,35.2
2017-08-07T14:30:23.470Z,35.4
2017-08-07T14:31:30.637Z,37.9
2017-08-07T14:32:38.133Z,36.8
2017-08-07T14:33:45.627Z,35.3
2017-08-07T14:34:52.785Z,37.5
2017-08-07T14:35:59.957Z,38.6
2017-08-07T14:37:07.772Z,38.7
2017-08-07T14:38:15.256Z,35.8
2017-08-07T14:39:22.748Z,34.9
2017-08-07T14:40:30.233Z,35.9
2017-08-07T14:41:37.456Z,34
2017-08-07T14:42:45.279Z,36.4
2017-08-07T14:43:52.780Z,40.2
2017-08-07T14:45:00.274Z,38.4
2017-08-07T14:46:07.772Z,35.3
2017-08-07T14:47:15.263Z,34.7
2017-08-07T14:48:23.056Z,34.8
2017-08-07T14:49:30.562Z,34.3
2017-08-07T14:50:38.053Z,35.6
2017-08-07T14:51:45.545Z,35.5
2017-08-07T14:52:53.040Z,34.2
2017-08-07T14:54:00.537Z,34.7
2017-08-07T14:55:08.025Z,34.7
2017-08-07T14:56:15.516Z,36.3
2017-08-07T14:57:23.006Z,35.4
2017-08-07T14:58:30.494Z,35.8
2017-08-07T14:59:38.294Z,35.8
2017-08-07T15:00:45.787Z,36
2017-08-07T15:01:53.279Z,38.2
2017-08-07T15:03:00.771Z,36.4
2017-08-07T15:04:08.264Z,41.6
2017-08-07T15:05:15.994Z,40.4
2017-08-07T15:06:23.479Z,40.8
2017-08-07T15:07:31.205Z,36.5
2017-08-07T15:08:38.704Z,37.8